Time;durP1;ratioP1;P1;durP2;ratioP2;P2;SDS_P1;SDS_P2;PMS_P1;PMS_P2;Temp;Humidity;BMP_temperature;BMP_pressure;BME280_temperature;BME280_humidity;BME280_pressure;Samples;Min_cycle;Max_cycle;Signal;HPM_P1;HPM_P2
2023/11/13 05:30:24;;;;;;;0.08;0.08;;;15.90;92.10;;;;;;6137346;23;20016;31
2023/11/13 05:32:50;;;;;;;0.00;0.00;;;15.90;92.00;;;;;;4952125;28;20043;-74
2023/11/13 05:35:16;;;;;;;0.10;0.10;;;15.90;92.10;;;;;;4941072;29;20023;-74
2023/11/13 05:37:41;;;;;;;0.03;0.03;;;15.90;92.10;;;;;;4941020;29;20135;-75
2023/11/13 05:40:07;;;;;;;0.10;0.10;;;15.90;92.10;;;;;;4958714;29;20038;-74
2023/11/13 05:42:35;;;;;;;0.10;0.10;;;15.90;92.00;;;;;;4957516;28;20039;-74
2023/11/13 05:45:01;;;;;;;0.00;0.00;;;15.90;92.00;;;;;;4958698;29;20038;-74
2023/11/13 05:47:27;;;;;;;0.00;0.00;;;16.00;92.00;;;;;;4951911;29;20027;-74
2023/11/13 05:49:53;;;;;;;0.10;0.10;;;16.00;91.90;;;;;;4951276;29;20027;-75
2023/11/13 05:52:19;;;;;;;0.00;0.00;;;15.90;91.80;;;;;;4958628;28;20044;-76
2023/11/13 05:54:45;;;;;;;0.10;0.10;;;16.00;91.80;;;;;;4958096;29;20047;-74
2023/11/13 05:57:10;;;;;;;0.10;0.10;;;16.00;91.80;;;;;;4958494;29;20066;-74
2023/11/13 05:59:36;;;;;;;0.10;0.10;;;16.00;91.70;;;;;;4957917;29;20038;-84
2023/11/13 06:02:02;;;;;;;0.10;0.10;;;16.00;91.60;;;;;;4955453;28;20034;-88
2023/11/13 06:04:28;;;;;;;0.03;0.03;;;16.00;91.60;;;;;;4959599;28;20106;-88
2023/11/13 06:06:53;;;;;;;0.10;0.10;;;16.10;91.40;;;;;;4948878;29;20032;-87
2023/11/13 06:09:19;;;;;;;0.10;0.10;;;16.10;91.40;;;;;;4956860;29;20034;-86
2023/11/13 06:11:47;;;;;;;0.10;0.10;;;16.10;91.30;;;;;;4953843;29;20067;-86
2023/11/13 06:14:13;;;;;;;0.10;0.10;;;16.10;91.30;;;;;;4953673;29;20049;-85
2023/11/13 06:16:39;;;;;;;0.10;0.10;;;16.10;91.30;;;;;;4945344;29;20026;-84
2023/11/13 06:19:07;;;;;;;0.10;0.10;;;16.10;91.20;;;;;;4958927;29;20066;-84
2023/11/13 06:21:33;;;;;;;0.10;0.10;;;16.10;91.20;;;;;;4940697;29;20143;-84
2023/11/13 06:23:59;;;;;;;0.10;0.10;;;16.00;91.20;;;;;;4941132;29;20023;-74
2023/11/13 06:26:24;;;;;;;0.10;0.10;;;16.10;91.30;;;;;;4957674;29;20035;-74
2023/11/13 06:28:50;;;;;;;0.10;0.10;;;16.20;91.20;;;;;;4958261;29;20070;-75
2023/11/13 06:31:21;;;;;;;0.10;0.10;;;16.30;91.00;;;;;;4957758;29;20055;-75
2023/11/13 06:33:47;;;;;;;0.10;0.10;;;16.40;90.60;;;;;;4958221;29;20043;-75
2023/11/13 06:36:14;;;;;;;0.00;0.00;;;16.50;90.40;;;;;;4951767;29;20090;-92
2023/11/13 06:38:40;;;;;;;0.00;0.00;;;16.60;90.20;;;;;;4937602;29;20038;-92
2023/11/13 06:41:07;;;;;;;0.10;0.10;;;16.40;90.50;;;;;;4942264;29;20031;-91
2023/11/13 06:43:33;;;;;;;0.00;0.00;;;16.30;90.80;;;;;;4950864;29;20090;-92
2023/11/13 06:45:59;;;;;;;0.10;0.10;;;16.20;91.10;;;;;;4942171;29;20027;-89
2023/11/13 06:48:25;;;;;;;0.10;0.10;;;16.20;91.20;;;;;;4956925;29;20027;-91
2023/11/13 06:50:50;;;;;;;0.10;0.10;;;16.10;91.20;;;;;;4947406;28;20142;-86
2023/11/13 06:53:16;;;;;;;0.10;0.10;;;16.10;91.30;;;;;;4937255;29;20035;-86
2023/11/13 06:55:41;;;;;;;0.10;0.10;;;16.10;91.30;;;;;;4941977;29;20028;-83
2023/11/13 06:58:07;;;;;;;0.10;0.10;;;16.10;91.40;;;;;;4953252;28;20030;-84
2023/11/13 07:00:34;;;;;;;0.10;0.10;;;16.10;91.40;;;;;;4948980;28;21057;-83
2023/11/13 07:03:00;;;;;;;0.00;0.00;;;16.00;91.40;;;;;;4935559;29;20027;-85
2023/11/13 07:05:26;;;;;;;0.10;0.10;;;16.10;91.40;;;;;;4941084;29;20038;-84
2023/11/13 07:07:51;;;;;;;0.10;0.10;;;16.00;91.40;;;;;;4949483;29;20029;-86
2023/11/13 07:10:18;;;;;;;0.10;0.10;;;16.10;91.30;;;;;;4949846;29;20469;-84
2023/11/13 07:12:44;;;;;;;0.10;0.10;;;16.10;91.30;;;;;;4948526;29;20020;-83
2023/11/13 07:15:11;;;;;;;0.10;0.10;;;16.10;91.20;;;;;;4944978;29;20039;-85
2023/11/13 07:17:37;;;;;;;0.00;0.00;;;16.10;91.30;;;;;;4955700;28;20033;-83
2023/11/13 07:20:09;;;;;;;0.10;0.10;;;16.10;91.20;;;;;;4967842;28;20490;-85
2023/11/13 07:22:36;;;;;;;0.10;0.10;;;16.20;91.30;;;;;;4960021;29;20027;-86
2023/11/13 07:25:34;;;;;;;0.10;0.10;;;16.20;91.20;;;;;;4961518;29;20110;-87
2023/11/13 07:28:28;;;;;;;0.10;0.10;;;16.20;91.20;;;;;;4937028;28;20035;-89
2023/11/13 07:31:14;;;;;;;0.10;0.10;;;16.20;91.20;;;;;;4942611;29;20086;-88
2023/11/13 07:37:10;;;;;;;0.00;0.00;;;16.20;91.20;;;;;;4919580;29;20120;-86
2023/11/13 07:42:37;;;;;;;0.10;0.10;;;16.20;91.20;;;;;;4901430;29;20191;-86
2023/11/13 07:45:38;;;;;;;0.00;0.00;;;16.20;91.10;;;;;;4906293;29;20534;-87
2023/11/13 07:48:07;;;;;;;0.10;0.10;;;16.20;91.20;;;;;;4919705;29;20574;-88
2023/11/13 07:50:58;;;;;;;0.10;0.10;;;16.30;91.20;;;;;;4920088;29;20036;-88
2023/11/13 07:53:29;;;;;;;0.10;0.10;;;16.30;91.30;;;;;;4919369;29;20032;-86
2023/11/13 07:55:55;;;;;;;0.10;0.10;;;16.30;91.30;;;;;;4939653;29;20031;-88
2023/11/13 07:58:45;;;;;;;0.00;0.00;;;16.30;91.30;;;;;;4960617;28;20558;-88
2023/11/13 08:05:12;;;;;;;0.10;0.10;;;16.30;91.30;;;;;;4912071;28;20076;-89
2023/11/13 08:08:16;;;;;;;;;;;;;;;;;;;;;
2023/11/13 08:10:53;;;;;;;0.10;0.10;;;16.30;91.10;;;;;;4941548;29;20046;-85
2023/11/13 08:13:35;;;;;;;;;;;;;;;;;;;;;
2023/11/13 08:16:18;;;;;;;0.03;0.03;;;16.30;91.10;;;;;;4953624;29;20114;-87
2023/11/13 08:19:36;;;;;;;;;;;;;;;;;;;;;
2023/11/13 08:22:18;;;;;;;0.10;0.10;;;16.30;91.10;;;;;;4942174;29;20123;-87
2023/11/13 08:24:46;;;;;;;0.10;0.10;;;16.30;91.10;;;;;;4958499;29;20035;-87
2023/11/13 08:27:15;;;;;;;0.10;0.10;;;16.30;91.10;;;;;;4960043;28;20118;-85
2023/11/13 08:30:14;;;;;;;;;;;;;;;;;;;;;
2023/11/13 08:33:06;;;;;;;0.10;0.10;;;16.30;91.20;;;;;;4958414;29;20126;-87
2023/11/13 08:35:59;;;;;;;;;;;;;;;;;;;;;
2023/11/13 08:38:31;;;;;;;0.10;0.10;;;16.40;91.20;;;;;;4939464;29;20106;-87
2023/11/13 08:41:18;;;;;;;0.20;0.20;;;16.40;91.30;;;;;;4951095;29;20024;-86
2023/11/13 08:43:48;;;;;;;0.20;0.20;;;16.40;91.40;;;;;;4939084;29;20106;-86
2023/11/13 08:46:21;;;;;;;0.10;0.10;;;16.40;91.50;;;;;;4939731;29;20020;-87
2023/11/13 08:49:33;;;;;;;0.20;0.20;;;16.40;91.60;;;;;;4956315;29;20035;-89
2023/11/13 08:52:58;;;;;;;;;;;;;;;;;;;;;
2023/11/13 08:55:27;;;;;;;0.10;0.10;;;16.40;91.70;;;;;;4899398;29;20135;-87
2023/11/13 08:58:21;;;;;;;0.10;0.10;;;16.50;91.70;;;;;;4959865;28;20413;-86
2023/11/13 09:01:40;;;;;;;;;;;;;;;;;;;;;
2023/11/13 09:04:39;;;;;;;;;;;;;;;;;;;;;
2023/11/13 09:07:08;;;;;;;0.10;0.10;;;16.50;91.80;;;;;;4917154;29;20032;-85
2023/11/13 09:09:54;;;;;;;0.15;0.15;;;16.50;91.80;;;;;;4932599;29;20047;-87
2023/11/13 09:12:38;;;;;;;;;;;;;;;;;;;;;
2023/11/13 09:15:36;;;;;;;0.10;0.10;;;16.50;91.80;;;;;;4954924;29;20110;-85
2023/11/13 09:18:14;;;;;;;0.10;0.10;;;16.50;91.80;;;;;;4939571;29;20043;-86
2023/11/13 09:21:46;;;;;;;0.10;0.10;;;16.60;91.80;;;;;;4929868;29;20028;-87
2023/11/13 09:24:19;;;;;;;0.10;0.10;;;16.60;91.80;;;;;;4946631;29;20067;-86
2023/11/13 09:27:16;;;;;;;0.10;0.10;;;16.60;91.80;;;;;;4953354;29;20119;-86
2023/11/13 09:29:51;;;;;;;0.10;0.10;;;16.60;91.80;;;;;;4955389;29;20075;-87
2023/11/13 09:32:39;;;;;;;;;;;;;;;;;;;;;
2023/11/13 09:35:36;;;;;;;0.10;0.10;;;16.60;91.80;;;;;;4938326;29;20027;-86
2023/11/13 09:38:31;;;;;;;0.10;0.10;;;16.60;91.80;;;;;;4934085;29;20086;-86
2023/11/13 09:41:07;;;;;;;0.10;0.10;;;16.60;91.80;;;;;;4918336;29;20051;-86
2023/11/13 09:51:08;;;;;;;0.10;0.10;;;16.70;92.00;;;;;;4927648;29;20032;-87
2023/11/13 09:54:31;;;;;;;0.15;0.15;;;16.70;91.90;;;;;;4936293;29;20099;-87
2023/11/13 09:57:23;;;;;;;0.10;0.10;;;16.70;91.90;;;;;;4942297;29;20042;-88
2023/11/13 10:00:18;;;;;;;0.10;0.10;;;16.70;91.90;;;;;;4916824;29;20091;-81
2023/11/13 10:02:48;;;;;;;0.00;0.00;;;16.80;91.80;;;;;;4946798;29;20052;-79
2023/11/13 10:05:16;;;;;;;0.10;0.10;;;16.80;91.70;;;;;;4937463;29;20028;-79
2023/11/13 10:07:48;;;;;;;0.00;0.00;;;16.90;91.70;;;;;;4937713;29;20034;-79
2023/11/13 10:10:21;;;;;;;0.10;0.10;;;16.90;91.60;;;;;;4935741;29;20024;-79
2023/11/13 10:12:51;;;;;;;0.10;0.10;;;16.90;91.60;;;;;;4937085;29;20051;-79
2023/11/13 10:15:28;;;;;;;0.10;0.10;;;16.90;91.60;;;;;;4936733;29;20110;-79
2023/11/13 10:17:58;;;;;;;0.10;0.10;;;16.90;91.40;;;;;;4940936;29;20060;-79
2023/11/13 10:20:28;;;;;;;0.00;0.00;;;17.00;91.50;;;;;;4937654;29;20517;-78
2023/11/13 10:23:06;;;;;;;0.10;0.10;;;17.00;91.50;;;;;;4937745;29;20055;-79
2023/11/13 10:25:50;;;;;;;0.10;0.10;;;16.90;91.40;;;;;;4937451;29;20027;-80
2023/11/13 10:28:21;;;;;;;0.00;0.00;;;16.90;91.50;;;;;;4939754;29;20027;-79
2023/11/13 10:31:00;;;;;;;0.03;0.03;;;17.00;91.60;;;;;;4941266;29;20514;-79
2023/11/13 10:33:29;;;;;;;0.10;0.10;;;16.90;91.60;;;;;;4943116;29;20064;-79
2023/11/13 10:36:04;;;;;;;0.03;0.03;;;17.00;91.50;;;;;;4942890;29;20165;-79
2023/11/13 10:38:43;;;;;;;0.00;0.00;;;17.00;91.60;;;;;;4959892;29;20027;-79
2023/11/13 10:41:12;;;;;;;0.10;0.10;;;17.00;91.60;;;;;;4948164;29;20024;-79
2023/11/13 10:43:41;;;;;;;0.10;0.10;;;17.00;91.50;;;;;;4957254;29;20051;-79
2023/11/13 10:46:09;;;;;;;0.10;0.10;;;17.10;91.60;;;;;;4942770;29;20027;-79
2023/11/13 10:48:45;;;;;;;0.10;0.10;;;17.00;91.50;;;;;;4956243;29;20032;-79
2023/11/13 10:51:14;;;;;;;0.00;0.00;;;17.00;91.60;;;;;;4960458;29;20023;-79
2023/11/13 10:53:42;;;;;;;0.10;0.10;;;17.00;91.60;;;;;;4960340;29;20062;-79
2023/11/13 10:56:09;;;;;;;0.00;0.00;;;17.10;91.50;;;;;;4960452;29;20023;-79
2023/11/13 10:58:35;;;;;;;0.00;0.00;;;17.00;91.40;;;;;;4940906;29;20522;-79
2023/11/13 11:01:05;;;;;;;0.03;0.03;;;17.10;91.40;;;;;;4960161;29;20610;-79
2023/11/13 11:03:32;;;;;;;0.10;0.10;;;17.10;91.30;;;;;;4941114;29;20372;-78
2023/11/13 11:06:09;;;;;;;0.05;0.05;;;17.10;91.30;;;;;;4939726;29;20031;-79
2023/11/13 11:08:37;;;;;;;0.10;0.10;;;17.10;91.20;;;;;;4940902;29;20095;-79
2023/11/13 11:11:06;;;;;;;0.10;0.10;;;17.10;91.30;;;;;;4956263;29;20394;-79
2023/11/13 11:13:35;;;;;;;0.10;0.10;;;17.20;91.40;;;;;;4960509;29;20023;-79
2023/11/13 11:16:22;;;;;;;0.10;0.10;;;17.10;91.30;;;;;;4960569;29;20398;-78
2023/11/13 11:19:13;;;;;;;0.10;0.10;;;17.10;91.10;;;;;;4960431;29;20061;-78
2023/11/13 11:22:04;;;;;;;0.10;0.10;;;17.20;90.80;;;;;;4957792;29;20502;-79
2023/11/13 11:25:04;;;;;;;0.03;0.03;;;17.20;90.80;;;;;;4960430;29;20039;-79
2023/11/13 11:27:40;;;;;;;0.10;0.10;;;17.30;90.90;;;;;;4948089;29;20039;-79
2023/11/13 11:30:30;;;;;;;0.10;0.10;;;17.40;90.80;;;;;;4940055;29;20032;-79
2023/11/13 11:33:00;;;;;;;0.00;0.00;;;17.50;90.50;;;;;;4950141;28;20059;-82
2023/11/13 11:35:29;;;;;;;0.00;0.00;;;17.60;90.30;;;;;;4972262;28;20027;-79
2023/11/13 11:38:18;;;;;;;0.10;0.10;;;17.70;90.30;;;;;;4960960;29;20034;-79
2023/11/13 11:40:51;;;;;;;0.10;0.10;;;17.70;89.90;;;;;;4942247;29;20576;-78
2023/11/13 11:43:22;;;;;;;0.00;0.00;;;17.80;89.60;;;;;;4940099;29;20127;-78
2023/11/13 11:45:51;;;;;;;0.00;0.00;;;17.90;89.30;;;;;;4957531;29;20023;-80
2023/11/13 11:48:24;;;;;;;0.10;0.10;;;17.90;89.20;;;;;;4943512;29;20028;-86
2023/11/13 11:50:57;;;;;;;0.10;0.10;;;17.90;89.10;;;;;;4962709;29;20029;-78
2023/11/13 11:53:23;;;;;;;;;;;17.80;88.90;;;;;;4954220;29;20450;-79
2023/11/13 11:55:49;;;;;;;0.10;0.10;;;17.80;88.60;;;;;;4962250;29;19978;-80
2023/11/13 11:58:16;;;;;;;0.10;0.10;;;17.80;88.70;;;;;;4959163;29;20081;-78
2023/11/13 12:01:09;;;;;;;;;;;;;;;;;;;;;
2023/11/13 12:03:37;;;;;;;0.00;0.00;;;18.00;88.50;;;;;;4953259;29;20122;-79
2023/11/13 12:06:04;;;;;;;0.10;0.10;;;18.00;88.00;;;;;;4940864;29;20079;-78
2023/11/13 12:08:30;;;;;;;0.00;0.00;;;18.00;88.10;;;;;;4941376;29;20118;-78
2023/11/13 12:10:56;;;;;;;0.00;0.00;;;18.10;88.20;;;;;;4948344;28;20023;-78
2023/11/13 12:13:24;;;;;;;0.10;0.10;;;18.20;88.00;;;;;;4938896;29;20051;-78
2023/11/13 12:15:54;;;;;;;0.00;0.00;;;18.10;87.60;;;;;;4954059;28;20082;-78
2023/11/13 12:18:20;;;;;;;0.00;0.00;;;18.10;87.10;;;;;;4941432;29;20038;-77
2023/11/13 12:20:46;;;;;;;0.10;0.10;;;18.00;87.20;;;;;;4942238;29;20023;-80
2023/11/13 12:23:18;;;;;;;0.10;0.10;;;18.00;87.00;;;;;;4958961;29;20075;-80
2023/11/13 12:25:44;;;;;;;0.00;0.00;;;18.00;86.30;;;;;;4941365;29;20033;-81
2023/11/13 12:28:10;;;;;;;0.10;0.10;;;18.00;86.20;;;;;;4954649;29;20051;-80
2023/11/13 12:30:36;;;;;;;0.10;0.10;;;18.00;86.40;;;;;;4958963;29;20049;-81
2023/11/13 12:33:02;;;;;;;0.10;0.10;;;18.00;85.10;;;;;;4953069;29;20071;-81
2023/11/13 12:35:33;;;;;;;0.10;0.10;;;18.00;85.00;;;;;;4941101;29;20031;-81
2023/11/13 12:37:59;;;;;;;0.03;0.03;;;17.90;84.20;;;;;;4943861;29;20028;-80
2023/11/13 12:40:25;;;;;;;0.00;0.00;;;17.90;84.40;;;;;;4943853;29;20040;-81
2023/11/13 12:42:53;;;;;;;0.00;0.00;;;17.90;84.60;;;;;;4939116;29;20051;-82
2023/11/13 12:45:20;;;;;;;0.00;0.00;;;17.90;84.00;;;;;;4939986;29;20019;-81
2023/11/13 12:47:50;;;;;;;0.00;0.00;;;17.80;84.10;;;;;;4940847;29;20035;-91
2023/11/13 12:50:18;;;;;;;0.00;0.00;;;17.80;83.60;;;;;;4939751;29;20027;-86
2023/11/13 12:52:46;;;;;;;0.00;0.00;;;17.70;84.40;;;;;;4954481;28;20027;-79
2023/11/13 12:55:18;;;;;;;0.00;0.00;;;17.80;84.20;;;;;;4949071;29;20020;-84
2023/11/13 12:57:44;;;;;;;0.00;0.00;;;17.70;84.30;;;;;;4941149;29;20042;-84
2023/11/13 13:00:19;;;;;;;0.00;0.00;;;17.70;83.80;;;;;;4939394;29;20118;-80
2023/11/13 13:02:52;;;;;;;0.10;0.10;;;17.80;83.80;;;;;;4954518;29;20038;-90
2023/11/13 13:05:26;;;;;;;0.00;0.00;;;17.70;83.10;;;;;;4941216;29;20098;-89
2023/11/13 13:07:52;;;;;;;0.00;0.00;;;17.70;83.60;;;;;;4942473;29;20027;-93
2023/11/13 13:10:21;;;;;;;0.10;0.10;;;17.60;83.30;;;;;;4940021;29;20483;-91
2023/11/13 13:12:48;;;;;;;0.10;0.10;;;17.60;83.50;;;;;;4941577;29;20034;-92
2023/11/13 13:15:17;;;;;;;0.00;0.00;;;17.70;83.20;;;;;;4942932;29;20494;-92
2023/11/13 13:17:44;;;;;;;0.10;0.10;;;17.60;82.40;;;;;;4942026;29;20123;-90
2023/11/13 13:20:18;;;;;;;0.00;0.00;;;17.70;83.10;;;;;;4941792;29;20027;-90
2023/11/13 13:22:51;;;;;;;0.03;0.03;;;17.70;83.40;;;;;;4946933;29;20039;-94
2023/11/13 13:25:21;;;;;;;0.00;0.00;;;17.60;82.80;;;;;;4952466;29;20031;-92
2023/11/13 13:27:48;;;;;;;0.00;0.00;;;17.60;83.10;;;;;;4939399;29;20058;-89
2023/11/13 13:30:14;;;;;;;0.10;0.10;;;17.60;82.70;;;;;;4940833;29;20023;-93
2023/11/13 13:32:41;;;;;;;0.00;0.00;;;17.60;83.00;;;;;;4942520;29;20066;-90
2023/11/13 13:35:10;;;;;;;0.10;0.10;;;17.60;81.80;;;;;;4943250;29;20106;-93
2023/11/13 13:37:38;;;;;;;0.10;0.10;;;17.60;82.80;;;;;;4938279;29;20051;-91
2023/11/13 13:40:09;;;;;;;0.00;0.00;;;17.50;81.30;;;;;;4940286;29;20031;-91
2023/11/13 13:42:40;;;;;;;0.10;0.10;;;17.50;80.90;;;;;;4940479;29;20031;-89
2023/11/13 13:45:14;;;;;;;0.10;0.10;;;17.50;81.80;;;;;;4940321;29;20378;-88
2023/11/13 13:47:51;;;;;;;0.10;0.10;;;17.60;80.90;;;;;;4955357;29;20526;-90
2023/11/13 13:50:17;;;;;;;0.00;0.00;;;17.70;79.40;;;;;;4955347;29;20031;-90
2023/11/13 13:52:46;;;;;;;0.10;0.10;;;17.80;79.60;;;;;;4940960;29;20031;-91
2023/11/13 13:55:15;;;;;;;0.10;0.10;;;17.80;78.30;;;;;;4941173;29;20033;-91
2023/11/13 13:57:45;;;;;;;0.10;0.10;;;18.00;76.20;;;;;;4937679;29;20031;-89
2023/11/13 14:00:23;;;;;;;0.05;0.05;;;18.20;76.80;;;;;;4940449;29;20031;-92
2023/11/13 14:02:49;;;;;;;0.10;0.10;;;18.20;76.30;;;;;;4937580;29;20024;-90
2023/11/13 14:05:16;;;;;;;0.10;0.10;;;18.30;77.50;;;;;;4956491;28;20518;-90
2023/11/13 14:07:41;;;;;;;0.10;0.10;;;18.20;77.20;;;;;;4947331;29;20054;-89
2023/11/13 14:10:08;;;;;;;0.00;0.00;;;18.10;77.90;;;;;;4953495;29;20027;-89
2023/11/13 14:12:34;;;;;;;0.10;0.10;;;18.00;77.30;;;;;;4940347;29;20058;-91
2023/11/13 14:14:59;;;;;;;0.05;0.05;;;17.80;76.40;;;;;;4939946;29;20027;-90
2023/11/13 14:17:25;;;;;;;0.10;0.10;;;17.70;76.40;;;;;;4954341;28;20102;-91
2023/11/13 14:19:51;;;;;;;0.03;0.03;;;17.50;76.70;;;;;;4939882;29;20042;-89
2023/11/13 14:22:21;;;;;;;0.10;0.10;;;17.40;76.70;;;;;;4972873;28;20386;-91
2023/11/13 14:24:48;;;;;;;0.10;0.10;;;17.40;76.80;;;;;;4937244;29;20066;-90
2023/11/13 14:27:13;;;;;;;0.10;0.10;;;17.30;77.00;;;;;;4936762;29;20035;-92
2023/11/13 14:29:39;;;;;;;0.00;0.00;;;17.30;76.20;;;;;;4965567;28;20046;-91
2023/11/13 14:32:05;;;;;;;0.00;0.00;;;17.20;76.60;;;;;;4939457;29;20413;-89
2023/11/13 14:34:32;;;;;;;0.03;0.03;;;17.10;77.70;;;;;;4940137;29;20031;-89
2023/11/13 14:36:59;;;;;;;0.00;0.00;;;17.10;78.20;;;;;;4938608;29;20132;-90
2023/11/13 14:39:27;;;;;;;0.10;0.10;;;17.00;76.80;;;;;;4963273;28;20024;-88
2023/11/13 14:41:53;;;;;;;0.10;0.10;;;17.00;77.90;;;;;;4971710;28;20082;-89
2023/11/13 14:44:19;;;;;;;0.10;0.10;;;17.00;77.20;;;;;;4940448;29;20024;-89
2023/11/13 14:46:45;;;;;;;0.10;0.10;;;16.90;77.60;;;;;;4945595;29;20028;-90
2023/11/13 14:49:14;;;;;;;0.00;0.00;;;16.80;76.60;;;;;;4940251;29;20046;-89
2023/11/13 14:51:40;;;;;;;0.10;0.10;;;16.80;76.60;;;;;;4940696;29;20031;-88
2023/11/13 14:54:08;;;;;;;0.00;0.00;;;16.80;77.30;;;;;;4937865;29;20043;-88
2023/11/13 14:56:34;;;;;;;0.10;0.10;;;16.80;76.70;;;;;;4939886;29;20402;-87
2023/11/13 14:59:00;;;;;;;0.10;0.10;;;16.80;77.70;;;;;;4947922;29;20035;-88
2023/11/13 15:01:25;;;;;;;0.10;0.10;;;16.70;77.20;;;;;;4955776;29;20039;-88
2023/11/13 15:03:51;;;;;;;0.00;0.00;;;16.80;77.80;;;;;;4939815;29;20474;-89
2023/11/13 15:06:17;;;;;;;0.10;0.10;;;16.70;76.90;;;;;;4953706;29;20039;-89
2023/11/13 15:08:43;;;;;;;0.10;0.10;;;16.70;77.30;;;;;;4939880;29;20047;-88
2023/11/13 15:11:10;;;;;;;0.10;0.10;;;16.70;77.90;;;;;;4949067;29;20106;-90
2023/11/13 15:13:39;;;;;;;0.10;0.10;;;16.70;76.80;;;;;;4943673;28;20023;-89
2023/11/13 15:16:07;;;;;;;0.10;0.10;;;16.70;76.70;;;;;;4943011;28;20042;-89
2023/11/13 15:18:36;;;;;;;0.10;0.10;;;16.60;77.00;;;;;;4941542;29;20111;-89
2023/11/13 15:21:04;;;;;;;0.05;0.05;;;16.50;76.50;;;;;;4941644;29;20668;-90
2023/11/13 15:23:29;;;;;;;0.10;0.10;;;16.50;77.10;;;;;;4943113;29;20026;-88
2023/11/13 15:25:55;;;;;;;0.10;0.10;;;16.40;77.00;;;;;;4942093;29;20031;-88
2023/11/13 15:28:21;;;;;;;0.00;0.00;;;16.50;78.10;;;;;;4949699;29;20051;-88
2023/11/13 15:30:47;;;;;;;0.00;0.00;;;16.40;77.90;;;;;;4942557;29;20038;-87
2023/11/13 15:33:14;;;;;;;0.10;0.10;;;16.40;77.80;;;;;;4952910;29;20426;-89
2023/11/13 15:35:41;;;;;;;0.10;0.10;;;16.40;77.80;;;;;;4951380;29;20063;-87
2023/11/13 15:38:08;;;;;;;0.10;0.10;;;16.30;77.20;;;;;;4942607;29;20023;-89
2023/11/13 15:40:34;;;;;;;0.00;0.00;;;16.30;77.70;;;;;;4944035;28;20883;-89
2023/11/13 15:43:00;;;;;;;0.10;0.10;;;16.30;78.00;;;;;;4951687;29;20019;-88
2023/11/13 15:45:26;;;;;;;0.05;0.05;;;16.20;78.00;;;;;;4959673;28;20038;-89
2023/11/13 15:47:52;;;;;;;0.10;0.10;;;16.20;77.90;;;;;;4942754;29;20024;-88
2023/11/13 15:50:20;;;;;;;0.10;0.10;;;16.20;77.90;;;;;;4942394;29;20059;-88
2023/11/13 15:52:46;;;;;;;0.00;0.00;;;16.20;78.20;;;;;;4962583;28;20555;-88
2023/11/13 15:55:12;;;;;;;0.10;0.10;;;16.20;78.10;;;;;;4941860;29;20143;-88
2023/11/13 15:57:38;;;;;;;0.10;0.10;;;16.20;79.00;;;;;;4940209;29;20020;-89
2023/11/13 16:00:06;;;;;;;0.20;0.10;;;16.30;78.80;;;;;;4943412;28;20030;-88
2023/11/13 16:02:31;;;;;;;0.10;0.10;;;16.20;78.40;;;;;;4941694;29;20027;-88
2023/11/13 16:04:58;;;;;;;0.10;0.10;;;16.20;79.10;;;;;;4958872;29;20554;-88
2023/11/13 16:07:24;;;;;;;0.10;0.10;;;16.20;79.30;;;;;;4939105;29;20042;-88
2023/11/13 16:09:52;;;;;;;0.10;0.05;;;16.10;79.00;;;;;;4958232;29;20031;-87
2023/11/13 16:12:18;;;;;;;0.00;0.00;;;16.10;78.60;;;;;;4938603;29;20410;-87
2023/11/13 16:14:44;;;;;;;0.10;0.10;;;16.00;79.50;;;;;;4942334;29;20026;-85
2023/11/13 16:17:10;;;;;;;0.05;0.05;;;16.00;79.00;;;;;;4950275;29;20553;-86
2023/11/13 16:19:37;;;;;;;0.10;0.10;;;16.00;79.90;;;;;;4956005;29;20063;-86
2023/11/13 16:22:03;;;;;;;0.10;0.10;;;15.90;79.30;;;;;;4950152;29;20035;-86
2023/11/13 16:24:29;;;;;;;0.00;0.00;;;15.80;79.50;;;;;;4940729;29;20475;-85
2023/11/13 16:26:55;;;;;;;0.10;0.10;;;15.80;79.20;;;;;;4939334;29;20402;-86
2023/11/13 16:29:21;;;;;;;0.03;0.03;;;15.80;79.60;;;;;;4944625;28;20066;-87
2023/11/13 16:31:50;;;;;;;0.10;0.10;;;15.70;79.00;;;;;;4942899;29;20491;-86
2023/11/13 16:34:18;;;;;;;0.10;0.10;;;15.70;79.60;;;;;;4938791;29;20403;-86
2023/11/13 16:36:43;;;;;;;0.10;0.10;;;15.70;79.50;;;;;;4946869;29;20031;-87
2023/11/13 16:39:12;;;;;;;0.10;0.10;;;15.60;78.90;;;;;;4942248;29;20038;-86
2023/11/13 16:41:38;;;;;;;0.10;0.10;;;15.60;79.70;;;;;;4942494;29;20028;-86
2023/11/13 16:44:04;;;;;;;0.08;0.08;;;15.60;79.50;;;;;;4959628;29;20043;-86
2023/11/13 16:46:32;;;;;;;0.10;0.10;;;15.50;80.10;;;;;;4958271;29;20031;-89
2023/11/13 16:49:00;;;;;;;0.10;0.10;;;15.50;80.00;;;;;;4959387;29;20114;-88
2023/11/13 16:51:26;;;;;;;0.10;0.10;;;15.50;80.00;;;;;;4948759;29;20043;-89
2023/11/13 16:53:52;;;;;;;0.08;0.08;;;15.50;80.20;;;;;;4940681;29;20083;-86
2023/11/13 16:56:19;;;;;;;0.10;0.10;;;15.50;79.90;;;;;;4942365;29;20516;-85
2023/11/13 16:58:44;;;;;;;0.10;0.10;;;15.40;80.30;;;;;;4958934;29;20039;-86
2023/11/13 17:01:10;;;;;;;0.10;0.10;;;15.40;80.30;;;;;;4958609;29;20023;-85
2023/11/13 17:03:36;;;;;;;0.10;0.10;;;15.40;80.50;;;;;;4941672;29;20495;-87
2023/11/13 17:06:02;;;;;;;0.05;0.05;;;15.30;80.50;;;;;;4959484;29;20406;-85
2023/11/13 17:08:27;;;;;;;0.10;0.10;;;15.30;80.90;;;;;;4959096;29;20027;-86
2023/11/13 17:10:55;;;;;;;0.05;0.05;;;15.30;80.60;;;;;;4958186;29;20045;-85
2023/11/13 17:13:20;;;;;;;0.10;0.10;;;15.30;81.00;;;;;;4957353;29;20474;-85
2023/11/13 17:15:46;;;;;;;0.05;0.05;;;15.20;81.00;;;;;;4959293;29;20024;-84
2023/11/13 17:18:12;;;;;;;0.10;0.10;;;15.20;81.10;;;;;;4952888;29;20075;-86
2023/11/13 17:20:41;;;;;;;0.10;0.10;;;15.20;81.10;;;;;;4939978;29;20028;-85
2023/11/13 17:23:07;;;;;;;0.10;0.10;;;15.20;81.50;;;;;;4940520;29;20047;-88
2023/11/13 17:25:33;;;;;;;0.03;0.03;;;15.10;81.20;;;;;;4953153;28;20031;-78
2023/11/13 17:27:59;;;;;;;0.10;0.10;;;15.10;81.60;;;;;;4974558;28;20046;-78
2023/11/13 17:30:24;;;;;;;0.10;0.10;;;15.00;81.40;;;;;;4956296;29;20045;-83
2023/11/13 17:32:50;;;;;;;0.10;0.10;;;15.00;81.80;;;;;;4958616;29;20058;-75
2023/11/13 17:35:15;;;;;;;0.10;0.10;;;14.90;82.00;;;;;;4958911;29;20553;-79
2023/11/13 17:37:41;;;;;;;0.10;0.10;;;14.90;82.10;;;;;;4958011;28;20033;-77
2023/11/13 17:40:08;;;;;;;0.10;0.10;;;14.90;82.30;;;;;;4944742;28;20470;-81
2023/11/13 17:42:34;;;;;;;0.10;0.10;;;14.80;82.40;;;;;;4963899;28;20026;-81
2023/11/13 17:45:03;;;;;;;0.05;0.05;;;14.80;82.50;;;;;;4966463;28;20027;-80
2023/11/13 17:47:29;;;;;;;0.10;0.10;;;14.80;82.80;;;;;;4968351;28;20466;-81
2023/11/13 17:49:54;;;;;;;0.10;0.10;;;14.70;83.00;;;;;;4967755;28;20038;-81
2023/11/13 17:52:20;;;;;;;0.10;0.10;;;14.70;83.10;;;;;;4969923;28;20023;-80
2023/11/13 17:54:46;;;;;;;0.10;0.10;;;14.70;83.20;;;;;;4966675;28;20158;-78
2023/11/13 17:57:15;;;;;;;0.10;0.10;;;14.60;83.30;;;;;;4966751;28;20027;-81
2023/11/13 17:59:41;;;;;;;0.00;0.00;;;14.60;83.30;;;;;;4964742;28;20027;-82
2023/11/13 18:02:08;;;;;;;0.10;0.10;;;14.60;83.30;;;;;;4965653;28;20019;-83
2023/11/13 18:04:34;;;;;;;0.10;0.10;;;14.60;83.30;;;;;;4968519;28;20034;-77
2023/11/13 18:07:01;;;;;;;0.10;0.10;;;14.50;83.00;;;;;;4967382;28;20018;-79
2023/11/13 18:09:27;;;;;;;0.10;0.10;;;14.50;83.00;;;;;;4966198;28;20024;-78
2023/11/13 18:11:53;;;;;;;0.10;0.10;;;14.50;82.90;;;;;;4967887;28;20135;-84
2023/11/13 18:14:19;;;;;;;0.10;0.10;;;14.50;82.90;;;;;;4948656;28;20062;-83
2023/11/13 18:16:48;;;;;;;0.10;0.10;;;14.50;83.00;;;;;;4949488;28;20534;-80
2023/11/13 18:19:13;;;;;;;0.10;0.10;;;14.50;82.90;;;;;;4957894;29;20071;-78
2023/11/13 18:21:40;;;;;;;0.10;0.10;;;14.50;83.00;;;;;;4958707;29;20043;-79
2023/11/13 18:24:09;;;;;;;0.10;0.10;;;14.40;83.20;;;;;;4957496;29;20495;-81
2023/11/13 18:26:35;;;;;;;0.10;0.10;;;14.40;83.10;;;;;;4958657;29;20023;-81
2023/11/13 18:29:03;;;;;;;0.10;0.10;;;14.50;83.30;;;;;;4940654;29;20496;-83
2023/11/13 18:31:29;;;;;;;0.10;0.10;;;14.50;83.30;;;;;;4941485;29;20059;-81
2023/11/13 18:33:55;;;;;;;0.10;0.10;;;14.50;83.40;;;;;;4958608;29;20865;-79
2023/11/13 18:36:22;;;;;;;0.10;0.10;;;14.50;83.50;;;;;;4956286;29;20036;-78
2023/11/13 18:38:50;;;;;;;0.13;0.13;;;14.50;83.60;;;;;;4958098;29;20028;-80
2023/11/13 18:41:19;;;;;;;0.10;0.10;;;14.40;83.50;;;;;;4957855;28;20026;-78
2023/11/13 18:43:45;;;;;;;0.10;0.10;;;14.40;83.60;;;;;;4958461;29;20458;-78
2023/11/13 18:46:12;;;;;;;0.10;0.10;;;14.40;83.70;;;;;;4958634;28;20100;-79
2023/11/13 18:48:40;;;;;;;0.00;0.00;;;14.30;83.70;;;;;;4959100;28;20016;-80
2023/11/13 18:51:05;;;;;;;0.10;0.10;;;14.30;83.90;;;;;;4961974;29;20402;-80
2023/11/13 18:53:31;;;;;;;0.10;0.10;;;14.30;84.00;;;;;;4961800;29;20042;-85
2023/11/13 18:55:57;;;;;;;0.10;0.10;;;14.30;83.90;;;;;;4962027;29;20030;-81
2023/11/13 18:58:24;;;;;;;0.10;0.10;;;14.30;84.00;;;;;;4961027;29;20106;-83
2023/11/13 19:00:50;;;;;;;0.10;0.10;;;14.20;84.20;;;;;;4944711;29;20031;-86
2023/11/13 19:03:15;;;;;;;0.10;0.10;;;14.20;84.30;;;;;;4959621;29;20059;-76
2023/11/13 19:05:41;;;;;;;0.10;0.10;;;14.20;84.40;;;;;;4965418;28;20031;-79
2023/11/13 19:08:12;;;;;;;0.10;0.10;;;14.20;84.70;;;;;;4958392;28;20050;-77